createdAt,value
2022-11-14T00:00:51.879Z,63.42
2022-11-14T00:01:51.896Z,63.34
2022-11-14T00:02:51.937Z,63.31
2022-11-14T00:03:51.858Z,63.31
2022-11-14T00:04:51.888Z,63.02
2022-11-14T00:05:51.857Z,63.02
2022-11-14T00:06:51.888Z,62.94
2022-11-14T00:07:51.880Z,62.86
2022-11-14T00:08:51.903Z,62.85
2022-11-14T00:09:51.876Z,62.66
2022-11-14T00:10:51.892Z,62.55
2022-11-14T00:11:51.903Z,62.45
2022-11-14T00:12:52.604Z,62.39
2022-11-14T00:15:51.874Z,62.29
2022-11-14T00:16:51.966Z,62.27
2022-11-14T00:17:51.921Z,62.27
2022-11-14T00:18:51.895Z,62.35
2022-11-14T00:19:51.945Z,62.33
2022-11-14T00:21:51.983Z,62.23
2022-11-14T00:22:51.933Z,62.28
2022-11-14T00:23:51.919Z,62.23
2022-11-14T00:24:51.946Z,62.17
2022-11-14T00:26:51.919Z,62.24
2022-11-14T00:27:51.931Z,62.18
2022-11-14T00:28:51.945Z,62.22
2022-11-14T00:29:51.965Z,62.13
2022-11-14T00:30:51.936Z,62.13
2022-11-14T00:31:51.962Z,62.08
2022-11-14T00:32:51.976Z,62.01
2022-11-14T00:33:51.953Z,62.01
2022-11-14T00:34:51.965Z,61.81
2022-11-14T00:35:51.949Z,61.78
2022-11-14T00:36:51.957Z,61.78
2022-11-14T00:37:51.990Z,61.93
2022-11-14T00:38:51.965Z,61.93
2022-11-14T00:39:52.029Z,61.97
2022-11-14T00:41:51.974Z,61.99
2022-11-14T00:42:52.001Z,62.08
2022-11-14T00:43:51.958Z,62.08
2022-11-14T00:44:52.033Z,62.25
2022-11-14T00:45:51.976Z,62.25
2022-11-14T00:46:51.987Z,62.39
2022-11-14T00:47:52.036Z,62.31
2022-11-14T00:48:52.003Z,62.44
2022-11-14T00:49:52.797Z,62.49
2022-11-14T00:50:52.021Z,62.56
2022-11-14T00:51:52.001Z,62.71
2022-11-14T00:52:52.039Z,62.71
2022-11-14T00:55:52.038Z,62.86
2022-11-14T00:57:52.054Z,62.93
2022-11-14T00:58:52.005Z,62.93
2022-11-14T00:59:52.010Z,62.82
2022-11-14T01:00:52.103Z,62.72
2022-11-14T01:05:52.093Z,62.85
2022-11-14T01:06:52.011Z,62.85
2022-11-14T01:07:52.022Z,62.85
2022-11-14T01:08:52.157Z,62.70
2022-11-14T01:11:52.054Z,62.63
2022-11-14T01:12:52.057Z,62.68
2022-11-14T01:15:52.082Z,62.61
2022-11-14T01:16:52.061Z,62.61
2022-11-14T01:17:52.061Z,62.69
2022-11-14T01:18:52.141Z,62.57
2022-11-14T01:20:52.106Z,62.63
2022-11-14T01:21:52.084Z,62.53
2022-11-14T01:22:52.080Z,62.56
2022-11-14T01:23:52.069Z,62.56
2022-11-14T01:24:52.062Z,62.64
2022-11-14T01:25:52.085Z,62.64
2022-11-14T01:26:53.033Z,63.06
2022-11-14T01:27:52.108Z,63.16
2022-11-14T01:28:52.064Z,63.16
2022-11-14T01:29:52.072Z,63.27
2022-11-14T01:30:52.110Z,64.00
2022-11-14T01:32:52.107Z,64.24
2022-11-14T01:33:52.105Z,64.17
2022-11-14T01:34:52.129Z,64.17
2022-11-14T01:35:52.113Z,64.84
2022-11-14T01:36:52.118Z,65.17
2022-11-14T01:37:52.113Z,65.38
2022-11-14T01:38:52.100Z,65.38
2022-11-14T01:39:52.143Z,65.97
2022-11-14T01:40:52.123Z,66.15
2022-11-14T01:41:52.143Z,66.15
2022-11-14T01:42:52.115Z,66.19
2022-11-14T01:43:52.129Z,66.29
2022-11-14T01:44:52.141Z,66.52
2022-11-14T01:45:52.126Z,66.49
2022-11-14T01:46:52.141Z,66.26
2022-11-14T01:47:52.123Z,66.26
2022-11-14T01:48:52.121Z,66.11
2022-11-14T01:49:52.159Z,65.85
2022-11-14T01:50:52.129Z,65.85
2022-11-14T01:51:52.140Z,65.86
2022-11-14T01:52:52.171Z,65.85
2022-11-14T01:53:52.136Z,65.85
2022-11-14T01:55:52.149Z,65.99
2022-11-14T01:56:52.157Z,65.95
2022-11-14T01:57:52.231Z,65.88
2022-11-14T01:58:52.146Z,65.68
2022-11-14T01:59:52.161Z,65.46
2022-11-14T02:00:52.160Z,65.18
2022-11-14T02:01:52.198Z,65.08
2022-11-14T02:02:52.162Z,64.95
2022-11-14T02:03:53.258Z,64.50
2022-11-14T02:04:52.204Z,64.50
2022-11-14T02:05:52.175Z,64.16
2022-11-14T02:06:52.198Z,64.16
2022-11-14T02:07:52.237Z,64.13
2022-11-14T02:08:52.181Z,64.13
2022-11-14T02:09:52.157Z,63.92
2022-11-14T02:10:52.240Z,63.51
2022-11-14T02:11:52.182Z,63.51
2022-11-14T02:12:52.230Z,63.37
2022-11-14T02:13:52.205Z,63.21
2022-11-14T02:14:52.215Z,63.21
2022-11-14T02:15:52.210Z,63.09
2022-11-14T02:17:22.245Z,63.15
2022-11-14T02:17:52.214Z,63.18
2022-11-14T02:18:52.221Z,63.43
2022-11-14T02:19:52.330Z,63.45
2022-11-14T02:20:52.214Z,63.60
2022-11-14T02:21:52.215Z,64.12
2022-11-14T02:22:52.187Z,64.80
2022-11-14T02:23:52.206Z,65.29
2022-11-14T02:24:52.204Z,65.51
2022-11-14T02:25:52.262Z,65.48
2022-11-14T02:26:52.211Z,65.48
2022-11-14T02:27:52.238Z,65.30
2022-11-14T02:28:52.262Z,65.20
2022-11-14T02:29:52.217Z,65.11
2022-11-14T02:30:52.204Z,65.04
2022-11-14T02:31:52.265Z,65.19
2022-11-14T02:33:11.203Z,65.16
2022-11-14T02:33:52.233Z,65.05
2022-11-14T02:34:52.215Z,64.63
2022-11-14T02:36:52.263Z,64.25
2022-11-14T02:37:52.265Z,64.22
2022-11-14T02:38:52.277Z,64.19
2022-11-14T02:39:52.273Z,64.06
2022-11-14T02:40:53.443Z,63.77
2022-11-14T02:41:52.272Z,63.77
2022-11-14T02:42:52.298Z,63.54
2022-11-14T02:43:52.284Z,63.54
2022-11-14T02:44:52.288Z,63.46
2022-11-14T02:45:52.284Z,63.46
2022-11-14T02:46:52.305Z,63.32
2022-11-14T02:49:52.263Z,63.16
2022-11-14T02:50:52.297Z,63.15
2022-11-14T02:51:52.322Z,63.11
2022-11-14T02:52:52.290Z,63.19
2022-11-14T02:53:52.337Z,63.34
2022-11-14T02:55:52.311Z,63.33
2022-11-14T02:56:52.317Z,63.33
2022-11-14T02:58:52.318Z,63.18
2022-11-14T02:59:52.301Z,63.22
2022-11-14T03:01:13.440Z,63.37
2022-11-14T03:01:52.400Z,63.40
2022-11-14T03:02:52.317Z,63.42
2022-11-14T03:03:52.332Z,63.47
2022-11-14T03:05:52.325Z,63.27
2022-11-14T03:06:52.438Z,63.34
2022-11-14T03:07:52.313Z,63.34
2022-11-14T03:08:52.305Z,63.40
2022-11-14T03:10:52.327Z,63.38
2022-11-14T03:11:52.345Z,63.39
2022-11-14T03:12:52.320Z,63.39
2022-11-14T03:13:52.331Z,63.34
2022-11-14T03:14:52.359Z,63.29
2022-11-14T03:15:52.337Z,63.14
2022-11-14T03:16:52.359Z,63.02
2022-11-14T03:17:53.647Z,63.01
2022-11-14T03:18:52.357Z,63.01
2022-11-14T03:19:52.404Z,63.44
2022-11-14T03:20:52.404Z,63.44
2022-11-14T03:21:52.331Z,63.72
2022-11-14T03:22:52.334Z,64.15
2022-11-14T03:23:52.354Z,64.14
2022-11-14T03:24:52.344Z,63.98
2022-11-14T03:25:52.372Z,64.09
2022-11-14T03:26:52.380Z,64.24
2022-11-14T03:27:52.412Z,64.32
2022-11-14T03:28:52.343Z,64.32
2022-11-14T03:31:52.370Z,64.13
2022-11-14T03:32:52.418Z,64.14
2022-11-14T03:33:52.390Z,64.54
2022-11-14T03:34:52.422Z,64.88
2022-11-14T03:35:52.376Z,64.88
2022-11-14T03:36:52.420Z,65.16
2022-11-14T03:37:56.191Z,65.15
2022-11-14T03:38:52.384Z,65.42
2022-11-14T03:39:52.415Z,65.40
2022-11-14T03:40:52.391Z,65.38
2022-11-14T03:41:52.398Z,65.38
2022-11-14T03:42:52.438Z,65.34
2022-11-14T03:43:52.434Z,65.39
2022-11-14T03:44:52.443Z,65.30
2022-11-14T03:45:52.425Z,65.17
2022-11-14T03:46:52.420Z,64.96
2022-11-14T03:47:52.413Z,64.90
2022-11-14T03:48:52.413Z,64.78
2022-11-14T03:49:52.412Z,64.62
2022-11-14T03:50:52.433Z,64.45
2022-11-14T03:51:52.421Z,64.28
2022-11-14T03:52:52.459Z,64.27
2022-11-14T03:53:52.446Z,64.09
2022-11-14T03:54:53.871Z,63.92
2022-11-14T03:55:52.437Z,63.92
2022-11-14T03:56:52.433Z,63.84
2022-11-14T03:57:52.452Z,63.88
2022-11-14T03:58:52.436Z,63.95
2022-11-14T03:59:52.503Z,63.92
2022-11-14T04:00:52.478Z,63.92
2022-11-14T04:01:52.457Z,63.85
2022-11-14T04:02:52.495Z,64.02
2022-11-14T04:04:52.458Z,64.15
2022-11-14T04:05:52.462Z,64.10
2022-11-14T04:06:52.509Z,63.98
2022-11-14T04:07:52.516Z,63.87
2022-11-14T04:08:52.471Z,64.09
2022-11-14T04:09:52.493Z,64.07
2022-11-14T04:10:52.515Z,64.00
2022-11-14T04:11:52.473Z,64.03
2022-11-14T04:12:52.505Z,63.87
2022-11-14T04:13:52.530Z,63.94
2022-11-14T04:14:52.511Z,63.92
2022-11-14T04:15:52.484Z,63.92
2022-11-14T04:16:52.516Z,63.81
2022-11-14T04:17:52.508Z,63.84
2022-11-14T04:18:52.512Z,64.09
2022-11-14T04:19:52.510Z,64.27
2022-11-14T04:20:52.538Z,65.03
2022-11-14T04:21:52.480Z,65.03
2022-11-14T04:22:52.507Z,65.48
2022-11-14T04:23:52.542Z,65.73
2022-11-14T04:24:52.518Z,65.73
2022-11-14T04:25:52.530Z,65.96
2022-11-14T04:26:52.521Z,66.22
2022-11-14T04:27:52.512Z,66.30
2022-11-14T04:28:52.564Z,66.24
2022-11-14T04:29:52.513Z,66.24
2022-11-14T04:30:52.566Z,66.15
2022-11-14T04:31:54.143Z,65.73
2022-11-14T04:32:52.525Z,65.73
2022-11-14T04:33:52.543Z,65.53
2022-11-14T04:34:52.520Z,65.42
2022-11-14T04:35:52.558Z,65.23
2022-11-14T04:36:52.568Z,65.13
2022-11-14T04:37:52.558Z,65.11
2022-11-14T04:38:52.599Z,64.99
2022-11-14T04:39:52.560Z,64.99
2022-11-14T04:40:52.578Z,65.15
2022-11-14T04:41:52.521Z,65.29
2022-11-14T04:43:52.600Z,65.11
2022-11-14T04:44:52.637Z,65.25
2022-11-14T04:45:52.589Z,65.18
2022-11-14T04:46:52.579Z,65.18
2022-11-14T04:47:52.560Z,65.06
2022-11-14T04:48:52.577Z,64.96
2022-11-14T04:49:52.557Z,64.99
2022-11-14T04:50:52.568Z,64.93
2022-11-14T04:51:52.602Z,64.83
2022-11-14T04:52:52.588Z,64.75
2022-11-14T04:53:52.582Z,64.75
2022-11-14T04:54:52.587Z,65.06
2022-11-14T04:55:52.569Z,65.19
2022-11-14T04:56:52.570Z,65.03
2022-11-14T04:57:52.570Z,65.05
2022-11-14T04:58:52.597Z,65.07
2022-11-14T04:59:52.585Z,65.07
2022-11-14T05:00:52.613Z,64.99
2022-11-14T05:01:52.714Z,64.99
2022-11-14T05:02:52.617Z,64.63
2022-11-14T05:03:52.591Z,64.63
2022-11-14T05:04:52.621Z,64.45
2022-11-14T05:05:52.598Z,64.26
2022-11-14T05:06:52.782Z,64.21
2022-11-14T05:07:52.582Z,64.17
2022-11-14T05:08:54.385Z,64.32
2022-11-14T05:09:52.658Z,64.35
2022-11-14T05:10:52.610Z,64.35
2022-11-14T05:11:52.648Z,64.22
2022-11-14T05:12:52.612Z,64.31
2022-11-14T05:13:52.595Z,64.51
2022-11-14T05:14:52.668Z,64.33
2022-11-14T05:15:52.636Z,64.33
2022-11-14T05:16:52.635Z,64.27
2022-11-14T05:17:52.652Z,64.15
2022-11-14T05:18:52.640Z,64.15
2022-11-14T05:20:52.635Z,64.11
2022-11-14T05:21:52.674Z,64.24
2022-11-14T05:22:52.633Z,64.24
2022-11-14T05:23:52.630Z,64.31
2022-11-14T05:24:52.634Z,64.58
2022-11-14T05:25:57.611Z,65.02
2022-11-14T05:26:52.658Z,65.42
2022-11-14T05:27:52.676Z,65.51
2022-11-14T05:28:52.675Z,65.48
2022-11-14T05:29:52.687Z,65.50
2022-11-14T05:30:52.695Z,65.56
2022-11-14T05:31:52.662Z,65.56
2022-11-14T05:32:52.659Z,65.50
2022-11-14T05:33:52.735Z,65.24
2022-11-14T05:34:52.670Z,65.25
2022-11-14T05:35:52.672Z,65.31
2022-11-14T05:36:52.672Z,65.15
2022-11-14T05:37:57.403Z,65.11
2022-11-14T05:38:52.677Z,65.11
2022-11-14T05:39:52.726Z,65.10
2022-11-14T05:41:52.728Z,65.47
2022-11-14T05:42:52.701Z,65.47
2022-11-14T05:43:52.705Z,65.61
2022-11-14T05:44:52.730Z,65.53
2022-11-14T05:45:54.644Z,65.48
2022-11-14T05:46:52.702Z,65.48
2022-11-14T05:47:52.701Z,65.25
2022-11-14T05:50:52.712Z,64.99
2022-11-14T05:51:52.710Z,64.93
2022-11-14T05:52:52.726Z,64.85
2022-11-14T05:53:52.721Z,64.65
2022-11-14T05:54:52.741Z,64.70
2022-11-14T05:55:52.715Z,64.96
2022-11-14T05:56:52.735Z,65.79
2022-11-14T05:57:52.726Z,66.13
2022-11-14T05:58:52.729Z,66.57
2022-11-14T05:59:52.764Z,67.07
2022-11-14T06:00:54.507Z,67.06
2022-11-14T06:01:52.849Z,67.62
2022-11-14T06:02:52.767Z,67.79
2022-11-14T06:03:52.751Z,67.82
2022-11-14T06:04:52.784Z,66.80
2022-11-14T06:05:52.766Z,66.80
2022-11-14T06:07:52.778Z,66.68
2022-11-14T06:08:52.752Z,66.46
2022-11-14T06:09:52.769Z,66.28
2022-11-14T06:10:52.761Z,66.01
2022-11-14T06:11:52.769Z,66.01
2022-11-14T06:12:52.771Z,65.96
2022-11-14T06:13:52.803Z,65.73
2022-11-14T06:14:52.789Z,65.58
2022-11-14T06:15:52.827Z,65.49
2022-11-14T06:18:52.771Z,65.38
2022-11-14T06:19:52.786Z,64.86
2022-11-14T06:20:52.814Z,65.30
2022-11-14T06:22:54.899Z,65.34
2022-11-14T06:23:52.809Z,65.34
2022-11-14T06:24:52.796Z,65.35
2022-11-14T06:25:52.821Z,65.56
2022-11-14T06:26:52.805Z,65.56
2022-11-14T06:27:52.800Z,65.47
2022-11-14T06:28:52.867Z,65.48
2022-11-14T06:29:52.823Z,65.43
2022-11-14T06:30:52.861Z,65.46
2022-11-14T06:31:52.830Z,65.56
2022-11-14T06:32:52.834Z,65.56
2022-11-14T06:33:52.848Z,65.54
2022-11-14T06:34:52.838Z,65.54
2022-11-14T06:35:52.871Z,65.65
2022-11-14T06:36:52.827Z,65.54
2022-11-14T06:37:52.834Z,65.50
2022-11-14T06:38:52.876Z,65.54
2022-11-14T06:39:52.844Z,65.32
2022-11-14T06:40:52.878Z,65.17
2022-11-14T06:41:52.849Z,65.18
2022-11-14T06:44:52.864Z,65.21
2022-11-14T06:47:52.883Z,65.62
2022-11-14T06:48:52.891Z,65.60
2022-11-14T06:49:52.858Z,65.60
2022-11-14T06:50:52.859Z,65.58
2022-11-14T06:53:52.902Z,65.19
2022-11-14T06:54:52.909Z,65.19
2022-11-14T06:55:52.869Z,65.77
2022-11-14T06:56:52.930Z,66.13
2022-11-14T06:57:52.883Z,66.13
2022-11-14T06:58:52.916Z,66.69
2022-11-14T07:00:52.898Z,66.85
2022-11-14T07:01:52.895Z,67.14
2022-11-14T07:02:53.131Z,67.14
2022-11-14T07:03:52.912Z,67.40
2022-11-14T07:04:52.920Z,67.45
2022-11-14T07:05:52.900Z,67.22
2022-11-14T07:06:52.998Z,67.06
2022-11-14T07:07:52.906Z,66.83
2022-11-14T07:08:52.904Z,66.87
2022-11-14T07:09:52.898Z,66.87
2022-11-14T07:10:52.934Z,66.47
2022-11-14T07:11:52.957Z,66.62
2022-11-14T07:12:52.907Z,66.50
2022-11-14T07:13:52.926Z,66.50
2022-11-14T07:14:52.971Z,66.45
2022-11-14T07:15:52.935Z,66.37
2022-11-14T07:16:52.990Z,66.42
2022-11-14T07:17:52.948Z,66.38
2022-11-14T07:18:52.932Z,66.38
2022-11-14T07:21:52.996Z,66.18
2022-11-14T07:22:52.953Z,66.18
2022-11-14T07:23:52.964Z,66.42
2022-11-14T07:25:52.948Z,66.68
2022-11-14T07:26:52.988Z,66.58
2022-11-14T07:27:52.961Z,66.58
2022-11-14T07:28:55.487Z,66.54
2022-11-14T07:29:52.987Z,66.45
2022-11-14T07:30:52.943Z,66.45
2022-11-14T07:31:53.035Z,66.14
2022-11-14T07:32:52.946Z,66.14
2022-11-14T07:33:52.957Z,66.06
2022-11-14T07:35:52.975Z,65.96
2022-11-14T07:37:52.988Z,65.98
2022-11-14T07:39:53.019Z,65.77
2022-11-14T07:40:58.156Z,65.92
2022-11-14T07:41:53.006Z,66.08
2022-11-14T07:43:53.001Z,66.23
2022-11-14T07:44:53.043Z,66.77
2022-11-14T07:45:53.002Z,66.77
2022-11-14T07:46:53.045Z,67.26
2022-11-14T07:47:53.013Z,67.38
2022-11-14T07:48:53.018Z,67.38
2022-11-14T07:49:53.051Z,67.25
2022-11-14T07:50:53.009Z,67.25
2022-11-14T07:51:53.047Z,67.02
2022-11-14T07:52:53.061Z,66.61
2022-11-14T07:53:53.034Z,67.22
2022-11-14T07:54:53.048Z,67.53
2022-11-14T07:55:53.027Z,67.82
2022-11-14T07:56:53.030Z,67.82
2022-11-14T07:57:53.076Z,67.49
2022-11-14T07:58:53.036Z,67.67
2022-11-14T08:01:53.061Z,68.30
2022-11-14T08:02:53.067Z,68.70
2022-11-14T08:03:53.021Z,68.70
2022-11-14T08:04:53.060Z,68.37
2022-11-14T08:05:53.060Z,68.37
2022-11-14T08:06:53.065Z,68.32
2022-11-14T08:07:53.075Z,67.93
2022-11-14T08:08:53.077Z,67.33
2022-11-14T08:09:53.057Z,67.73
2022-11-14T08:10:53.097Z,67.85
2022-11-14T08:11:53.058Z,68.06
2022-11-14T08:13:10.636Z,68.00
2022-11-14T08:13:55.628Z,68.64
2022-11-14T08:14:53.094Z,68.24
2022-11-14T08:15:53.154Z,68.69
2022-11-14T08:16:53.080Z,68.69
2022-11-14T08:17:53.098Z,68.41
2022-11-14T08:18:53.082Z,68.43
2022-11-14T08:19:53.092Z,68.29
2022-11-14T08:20:53.147Z,68.93
2022-11-14T08:21:53.082Z,68.93
2022-11-14T08:22:53.089Z,69.25
2022-11-14T08:23:53.082Z,68.92
2022-11-14T08:24:53.096Z,68.88
2022-11-14T08:25:53.136Z,69.30
2022-11-14T08:26:53.091Z,69.30
2022-11-14T08:28:53.105Z,70.02
2022-11-14T08:29:53.105Z,70.02
2022-11-14T08:30:53.155Z,69.52
2022-11-14T08:31:57.142Z,69.52
2022-11-14T08:32:53.111Z,70.15
2022-11-14T08:33:53.149Z,69.53
2022-11-14T08:34:53.141Z,69.53
2022-11-14T08:35:53.188Z,69.19
2022-11-14T08:36:53.139Z,68.41
2022-11-14T08:37:53.126Z,67.45
2022-11-14T08:38:57.493Z,67.80
2022-11-14T08:39:53.112Z,67.80
2022-11-14T08:40:53.148Z,68.14
2022-11-14T08:41:53.135Z,68.60
2022-11-14T08:42:53.118Z,68.37
2022-11-14T08:43:53.178Z,67.97
2022-11-14T08:44:53.137Z,67.97
2022-11-14T08:45:53.129Z,68.44
2022-11-14T08:46:53.190Z,67.84
2022-11-14T08:47:53.163Z,67.84
2022-11-14T08:48:53.192Z,66.80
2022-11-14T08:49:53.182Z,66.57
2022-11-14T08:50:55.845Z,66.04
2022-11-14T08:51:53.177Z,65.84
2022-11-14T08:52:53.168Z,65.84
2022-11-14T08:53:53.193Z,65.60
2022-11-14T08:55:53.175Z,65.94
2022-11-14T08:56:53.206Z,65.94
2022-11-14T08:57:53.186Z,65.81
2022-11-14T08:58:53.207Z,66.13
2022-11-14T08:59:53.196Z,66.29
2022-11-14T09:00:53.208Z,67.55
2022-11-14T09:01:53.215Z,67.79
2022-11-14T09:02:53.225Z,67.79
2022-11-14T09:03:59.396Z,68.71
2022-11-14T09:04:53.333Z,68.71
2022-11-14T09:05:53.210Z,69.27
2022-11-14T09:06:53.317Z,68.80
2022-11-14T09:07:53.201Z,68.80
2022-11-14T09:08:53.182Z,68.10
2022-11-14T09:09:53.226Z,67.80
2022-11-14T09:10:53.224Z,67.07
2022-11-14T09:11:53.260Z,66.80
2022-11-14T09:12:53.210Z,66.80
2022-11-14T09:13:53.267Z,65.83
2022-11-14T09:14:53.223Z,65.83
2022-11-14T09:15:53.207Z,65.52
2022-11-14T09:16:53.256Z,65.61
2022-11-14T09:17:53.229Z,65.61
2022-11-14T09:18:53.264Z,64.64
2022-11-14T09:19:53.214Z,64.64
2022-11-14T09:20:53.239Z,65.35
2022-11-14T09:21:53.265Z,64.82
2022-11-14T09:22:53.243Z,64.82
2022-11-14T09:23:57.365Z,65.09
2022-11-14T09:24:53.268Z,65.09
2022-11-14T09:25:53.241Z,64.60
2022-11-14T09:26:56.645Z,64.71
2022-11-14T09:27:56.082Z,64.68
2022-11-14T09:28:53.287Z,64.91
2022-11-14T09:29:53.269Z,64.91
2022-11-14T09:30:53.253Z,64.80
2022-11-14T09:31:53.300Z,64.99
2022-11-14T09:32:53.285Z,65.00
2022-11-14T09:33:53.279Z,64.93
2022-11-14T09:35:53.281Z,65.03
2022-11-14T09:37:53.295Z,65.18
2022-11-14T09:40:53.305Z,65.49
2022-11-14T09:42:53.307Z,65.52
2022-11-14T09:43:53.335Z,65.52
2022-11-14T09:44:53.308Z,65.56
2022-11-14T09:45:53.305Z,65.56
2022-11-14T09:47:53.317Z,65.53
2022-11-14T09:49:53.311Z,65.50
2022-11-14T09:50:53.311Z,65.50
2022-11-14T09:51:53.338Z,65.49
2022-11-14T09:52:53.316Z,65.49
2022-11-14T09:53:53.326Z,65.61
2022-11-14T09:55:53.318Z,65.69
2022-11-14T09:57:53.340Z,65.69
2022-11-14T09:58:53.342Z,65.64
2022-11-14T09:59:53.320Z,65.64
2022-11-14T10:00:53.345Z,65.64
2022-11-14T10:01:53.433Z,65.50
2022-11-14T10:02:53.358Z,65.32
2022-11-14T10:03:53.365Z,65.32
2022-11-14T10:04:56.321Z,65.22
2022-11-14T10:05:53.338Z,65.20
2022-11-14T10:07:53.369Z,65.37
2022-11-14T10:08:53.370Z,65.12
2022-11-14T10:09:53.366Z,64.61
2022-11-14T10:10:53.389Z,64.46
2022-11-14T10:11:53.521Z,64.86
2022-11-14T10:12:53.358Z,64.86
2022-11-14T10:13:53.356Z,64.86
2022-11-14T10:14:53.427Z,66.31
2022-11-14T10:15:53.362Z,66.31
2022-11-14T10:16:53.453Z,65.80
2022-11-14T10:17:53.395Z,65.80
2022-11-14T10:18:53.366Z,65.89
2022-11-14T10:19:53.422Z,66.12
2022-11-14T10:20:53.407Z,66.12
2022-11-14T10:21:53.454Z,66.21
2022-11-14T10:22:56.199Z,66.21
2022-11-14T10:23:53.413Z,65.96
2022-11-14T10:24:53.446Z,65.77
2022-11-14T10:25:53.414Z,65.59
2022-11-14T10:26:53.418Z,65.53
2022-11-14T10:27:57.425Z,65.53
2022-11-14T10:28:53.385Z,65.41
2022-11-14T10:29:53.464Z,65.16
2022-11-14T10:30:53.431Z,65.07
2022-11-14T10:31:53.438Z,65.06
2022-11-14T10:33:53.429Z,64.96
2022-11-14T10:34:53.445Z,64.45
2022-11-14T10:35:53.423Z,64.45
2022-11-14T10:36:53.458Z,66.73
2022-11-14T10:37:53.422Z,67.49
2022-11-14T10:38:53.444Z,67.74
2022-11-14T10:39:53.463Z,67.82
2022-11-14T10:40:54.596Z,67.82
2022-11-14T10:41:59.937Z,67.81
2022-11-14T10:42:53.470Z,67.81
2022-11-14T10:43:53.442Z,67.30
2022-11-14T10:44:53.497Z,67.02
2022-11-14T10:45:53.455Z,67.02
2022-11-14T10:46:53.485Z,66.69
2022-11-14T10:47:53.472Z,66.63
2022-11-14T10:48:58.922Z,66.63
2022-11-14T10:49:53.477Z,66.62
2022-11-14T10:50:53.455Z,66.31
2022-11-14T10:51:53.491Z,66.02
2022-11-14T10:52:53.446Z,66.02
2022-11-14T10:54:53.489Z,65.60
2022-11-14T10:56:04.093Z,65.51
2022-11-14T10:57:53.498Z,65.65
2022-11-14T10:58:53.465Z,65.65
2022-11-14T11:00:53.565Z,65.27
2022-11-14T11:01:53.510Z,64.72
2022-11-14T11:02:53.508Z,65.05
2022-11-14T11:03:53.611Z,65.05
2022-11-14T11:04:53.536Z,65.36
2022-11-14T11:05:53.514Z,65.36
2022-11-14T11:06:53.574Z,65.44
2022-11-14T11:07:53.487Z,65.44
2022-11-14T11:08:53.620Z,65.49
2022-11-14T11:09:53.606Z,65.48
2022-11-14T11:10:53.561Z,65.48
2022-11-14T11:11:53.504Z,65.37
2022-11-14T11:12:53.663Z,65.10
2022-11-14T11:13:53.513Z,65.10
2022-11-14T11:14:53.556Z,65.05
2022-11-14T11:15:53.528Z,65.05
2022-11-14T11:16:53.527Z,64.79
2022-11-14T11:17:53.579Z,65.09
2022-11-14T11:18:56.800Z,64.92
2022-11-14T11:19:53.554Z,64.56
2022-11-14T11:20:53.564Z,64.56
2022-11-14T11:21:53.579Z,64.48
2022-11-14T11:22:53.552Z,64.47
2022-11-14T11:23:53.560Z,64.45
2022-11-14T11:24:53.547Z,64.45
2022-11-14T11:25:53.549Z,64.32
2022-11-14T11:27:53.590Z,64.38
2022-11-14T11:28:53.579Z,64.38
2022-11-14T11:29:53.574Z,64.45
2022-11-14T11:30:54.582Z,64.09
2022-11-14T11:31:53.578Z,64.56
2022-11-14T11:32:53.573Z,64.56
2022-11-14T11:33:53.562Z,65.25
2022-11-14T11:34:53.570Z,66.88
2022-11-14T11:35:53.594Z,66.88
2022-11-14T11:36:53.604Z,66.88
2022-11-14T11:37:53.556Z,66.96
2022-11-14T11:38:53.609Z,66.76
2022-11-14T11:39:53.565Z,66.76
2022-11-14T11:40:53.623Z,66.62
2022-11-14T11:42:09.687Z,66.62
2022-11-14T11:43:36.855Z,66.40
2022-11-14T11:43:56.858Z,65.71
2022-11-14T11:44:53.606Z,65.39
2022-11-14T11:45:53.633Z,65.33
2022-11-14T11:46:53.584Z,65.26
2022-11-14T11:47:53.592Z,65.17
2022-11-14T11:48:53.637Z,65.29
2022-11-14T11:49:54.644Z,65.33
2022-11-14T11:50:53.605Z,65.33
2022-11-14T11:51:53.600Z,65.28
2022-11-14T11:52:53.641Z,65.18
2022-11-14T11:53:53.651Z,65.18
2022-11-14T11:54:53.632Z,64.81
2022-11-14T11:55:57.057Z,64.67
2022-11-14T11:56:53.650Z,64.74
2022-11-14T11:57:53.625Z,64.74
2022-11-14T11:59:53.626Z,64.79
2022-11-14T12:00:53.690Z,64.71
2022-11-14T12:01:53.691Z,64.60
2022-11-14T12:02:53.798Z,64.63
2022-11-14T12:03:53.727Z,64.63
2022-11-14T12:04:53.665Z,64.64
2022-11-14T12:08:53.693Z,64.63
2022-11-14T12:10:09.860Z,64.63
2022-11-14T12:10:53.716Z,64.82
2022-11-14T12:11:53.685Z,64.60
2022-11-14T12:12:53.666Z,64.60
2022-11-14T12:14:53.681Z,64.28
2022-11-14T12:15:53.675Z,64.45
2022-11-14T12:16:53.678Z,64.45
2022-11-14T12:18:53.716Z,63.79
2022-11-14T12:19:53.688Z,64.15
2022-11-14T12:20:53.697Z,64.21
2022-11-14T12:21:58.701Z,64.21
2022-11-14T12:22:53.693Z,64.25
2022-11-14T12:23:53.688Z,64.28
2022-11-14T12:24:53.696Z,64.28
2022-11-14T12:25:53.704Z,64.14
2022-11-14T12:26:53.722Z,63.78
2022-11-14T12:27:53.801Z,63.78
2022-11-14T12:28:53.697Z,64.08
2022-11-14T12:29:53.715Z,64.08
2022-11-14T12:30:53.699Z,64.09
2022-11-14T12:31:53.805Z,64.15
2022-11-14T12:32:57.342Z,64.35
2022-11-14T12:33:53.728Z,64.35
2022-11-14T12:34:53.806Z,64.05
2022-11-14T12:35:53.729Z,63.82
2022-11-14T12:36:53.821Z,63.57
2022-11-14T12:37:55.771Z,63.57
2022-11-14T12:38:53.739Z,63.89
2022-11-14T12:39:53.727Z,63.89
2022-11-14T12:40:53.739Z,63.66
2022-11-14T12:41:53.758Z,63.73
2022-11-14T12:42:53.718Z,63.73
2022-11-14T12:43:53.897Z,63.86
2022-11-14T12:44:53.732Z,63.84
2022-11-14T12:45:53.729Z,63.92
2022-11-14T12:46:53.742Z,64.22
2022-11-14T12:47:53.757Z,64.04
2022-11-14T12:48:53.774Z,63.38
2022-11-14T12:51:53.805Z,63.43
2022-11-14T12:52:53.755Z,63.43
2022-11-14T12:53:53.798Z,63.27
2022-11-14T12:54:53.817Z,63.09
2022-11-14T12:55:53.771Z,63.09
2022-11-14T12:56:54.337Z,63.17
2022-11-14T12:57:53.788Z,62.67
2022-11-14T12:58:53.778Z,63.23
2022-11-14T12:59:53.821Z,63.36
2022-11-14T13:03:53.815Z,63.11
2022-11-14T13:04:53.808Z,63.10
2022-11-14T13:05:53.811Z,63.02
2022-11-14T13:06:53.893Z,63.22
2022-11-14T13:07:53.815Z,63.22
2022-11-14T13:08:53.811Z,63.57
2022-11-14T13:09:57.504Z,62.66
2022-11-14T13:10:53.807Z,62.66
2022-11-14T13:13:53.867Z,62.17
2022-11-14T13:15:53.866Z,62.43
2022-11-14T13:17:53.828Z,62.44
2022-11-14T13:18:53.852Z,62.33
2022-11-14T13:19:53.913Z,62.54
2022-11-14T13:20:53.879Z,62.42
2022-11-14T13:21:53.895Z,62.58
2022-11-14T13:24:53.900Z,62.33
2022-11-14T13:25:53.865Z,62.20
2022-11-14T13:28:07.121Z,62.18
2022-11-14T13:28:53.900Z,62.28
2022-11-14T13:30:53.868Z,62.18
2022-11-14T13:31:53.890Z,62.29
2022-11-14T13:34:53.901Z,62.17
2022-11-14T13:35:53.863Z,62.10
2022-11-14T13:36:53.893Z,62.45
2022-11-14T13:37:53.925Z,62.39
2022-11-14T13:38:53.900Z,62.39
2022-11-14T13:39:53.899Z,62.35
2022-11-14T13:40:53.932Z,62.72
2022-11-14T13:41:53.905Z,62.92
2022-11-14T13:43:53.904Z,62.40
2022-11-14T13:44:53.933Z,61.56
2022-11-14T13:45:53.940Z,61.25
2022-11-14T13:46:57.731Z,61.61
2022-11-14T13:47:53.969Z,61.56
2022-11-14T13:48:53.940Z,61.70
2022-11-14T13:49:53.936Z,61.93
2022-11-14T13:51:53.914Z,62.44
2022-11-14T13:52:53.937Z,62.74
2022-11-14T13:53:53.925Z,62.66
2022-11-14T13:54:53.919Z,62.66
2022-11-14T13:55:53.941Z,62.54
2022-11-14T13:56:53.925Z,62.54
2022-11-14T13:57:53.936Z,62.73
2022-11-14T13:58:53.977Z,62.71
2022-11-14T13:59:53.960Z,62.30
2022-11-14T14:01:53.961Z,62.70
2022-11-14T14:02:53.951Z,62.50
2022-11-14T14:04:53.952Z,62.46
2022-11-14T14:05:53.955Z,62.36
2022-11-14T14:07:53.943Z,62.67
2022-11-14T14:08:53.946Z,62.24
2022-11-14T14:09:53.980Z,61.09
2022-11-14T14:10:53.975Z,61.79
2022-11-14T14:11:53.978Z,61.79
2022-11-14T14:12:53.956Z,62.23
2022-11-14T14:13:55.337Z,61.41
2022-11-14T14:14:53.986Z,61.41
2022-11-14T14:15:53.969Z,61.80
2022-11-14T14:16:54.039Z,60.57
2022-11-14T14:17:53.993Z,61.07
2022-11-14T14:19:54.012Z,61.42
2022-11-14T14:20:54.000Z,61.42
2022-11-14T14:21:54.028Z,61.66
2022-11-14T14:22:54.020Z,61.32
2022-11-14T14:23:57.969Z,61.25
2022-11-14T14:25:54.011Z,61.73
2022-11-14T14:26:54.040Z,60.43
2022-11-14T14:27:53.986Z,60.43
2022-11-14T14:28:54.017Z,61.27
2022-11-14T14:29:54.068Z,61.31
2022-11-14T14:30:54.010Z,61.31
2022-11-14T14:31:54.064Z,61.19